sensor_id;sensor_type;location;lat;lon;timestamp;P1;durP1;ratioP1;P2;durP2;ratioP2
18322;SDS011;9287;49.456;11.064;2023-05-15T00:00:04;5.33;;;4.80;;
18322;SDS011;9287;49.456;11.064;2023-05-15T00:02:35;5.60;;;5.10;;
18322;SDS011;9287;49.456;11.064;2023-05-15T00:05:04;5.93;;;5.33;;
18322;SDS011;9287;49.456;11.064;2023-05-15T00:07:36;5.63;;;5.23;;
18322;SDS011;9287;49.456;11.064;2023-05-15T00:10:04;5.70;;;5.20;;
18322;SDS011;9287;49.456;11.064;2023-05-15T00:12:33;5.77;;;5.27;;
18322;SDS011;9287;49.456;11.064;2023-05-15T00:15:02;6.33;;;5.73;;
18322;SDS011;9287;49.456;11.064;2023-05-15T00:17:29;6.13;;;5.53;;
18322;SDS011;9287;49.456;11.064;2023-05-15T00:19:58;6.13;;;5.63;;
18322;SDS011;9287;49.456;11.064;2023-05-15T00:22:25;6.57;;;5.97;;
18322;SDS011;9287;49.456;11.064;2023-05-15T00:24:55;6.80;;;6.20;;
18322;SDS011;9287;49.456;11.064;2023-05-15T00:27:24;6.67;;;6.10;;
18322;SDS011;9287;49.456;11.064;2023-05-15T00:29:53;6.60;;;6.03;;
18322;SDS011;9287;49.456;11.064;2023-05-15T00:32:21;6.77;;;6.07;;
18322;SDS011;9287;49.456;11.064;2023-05-15T00:34:48;7.63;;;6.93;;
18322;SDS011;9287;49.456;11.064;2023-05-15T00:37:16;7.63;;;6.87;;
18322;SDS011;9287;49.456;11.064;2023-05-15T00:39:44;7.03;;;6.43;;
18322;SDS011;9287;49.456;11.064;2023-05-15T00:42:14;6.80;;;6.20;;
18322;SDS011;9287;49.456;11.064;2023-05-15T00:44:42;7.93;;;7.00;;
18322;SDS011;9287;49.456;11.064;2023-05-15T00:47:11;6.53;;;6.03;;
18322;SDS011;9287;49.456;11.064;2023-05-15T00:49:41;7.93;;;7.23;;
18322;SDS011;9287;49.456;11.064;2023-05-15T00:52:09;7.03;;;6.50;;
18322;SDS011;9287;49.456;11.064;2023-05-15T00:54:38;6.90;;;6.23;;
18322;SDS011;9287;49.456;11.064;2023-05-15T00:57:06;6.87;;;6.37;;
18322;SDS011;9287;49.456;11.064;2023-05-15T00:59:36;6.03;;;5.53;;
18322;SDS011;9287;49.456;11.064;2023-05-15T01:02:05;6.50;;;5.90;;
18322;SDS011;9287;49.456;11.064;2023-05-15T01:04:33;6.53;;;5.87;;
18322;SDS011;9287;49.456;11.064;2023-05-15T01:07:01;5.90;;;5.47;;
18322;SDS011;9287;49.456;11.064;2023-05-15T01:09:29;6.03;;;5.27;;
18322;SDS011;9287;49.456;11.064;2023-05-15T01:11:58;5.53;;;5.10;;
18322;SDS011;9287;49.456;11.064;2023-05-15T01:14:27;5.67;;;5.20;;
18322;SDS011;9287;49.456;11.064;2023-05-15T01:16:56;6.53;;;5.93;;
18322;SDS011;9287;49.456;11.064;2023-05-15T01:19:25;5.87;;;5.47;;
18322;SDS011;9287;49.456;11.064;2023-05-15T01:22:11;6.47;;;5.97;;
18322;SDS011;9287;49.456;11.064;2023-05-15T01:24:56;6.20;;;5.53;;
18322;SDS011;9287;49.456;11.064;2023-05-15T01:27:41;6.40;;;5.80;;
18322;SDS011;9287;49.456;11.064;2023-05-15T01:30:13;5.47;;;5.07;;
18322;SDS011;9287;49.456;11.064;2023-05-15T01:32:50;5.90;;;5.30;;
18322;SDS011;9287;49.456;11.064;2023-05-15T01:35:25;6.60;;;6.10;;
18322;SDS011;9287;49.456;11.064;2023-05-15T01:37:59;6.60;;;5.90;;
18322;SDS011;9287;49.456;11.064;2023-05-15T01:40:39;5.83;;;5.33;;
18322;SDS011;9287;49.456;11.064;2023-05-15T01:43:10;6.83;;;6.13;;
18322;SDS011;9287;49.456;11.064;2023-05-15T01:45:41;6.77;;;6.07;;
18322;SDS011;9287;49.456;11.064;2023-05-15T01:48:09;6.20;;;5.70;;
18322;SDS011;9287;49.456;11.064;2023-05-15T01:50:40;7.23;;;6.63;;
18322;SDS011;9287;49.456;11.064;2023-05-15T01:53:10;6.83;;;6.37;;
18322;SDS011;9287;49.456;11.064;2023-05-15T01:55:38;7.03;;;6.47;;
18322;SDS011;9287;49.456;11.064;2023-05-15T01:58:07;7.03;;;6.43;;
18322;SDS011;9287;49.456;11.064;2023-05-15T02:00:37;6.83;;;6.13;;
18322;SDS011;9287;49.456;11.064;2023-05-15T02:03:06;7.50;;;6.90;;
18322;SDS011;9287;49.456;11.064;2023-05-15T02:05:34;8.70;;;6.37;;
18322;SDS011;9287;49.456;11.064;2023-05-15T02:08:03;6.90;;;6.40;;
18322;SDS011;9287;49.456;11.064;2023-05-15T02:10:31;7.30;;;6.67;;
18322;SDS011;9287;49.456;11.064;2023-05-15T02:12:59;7.80;;;6.73;;
18322;SDS011;9287;49.456;11.064;2023-05-15T02:15:29;7.30;;;6.70;;
18322;SDS011;9287;49.456;11.064;2023-05-15T02:17:57;7.10;;;6.33;;
18322;SDS011;9287;49.456;11.064;2023-05-15T02:20:25;7.17;;;6.53;;
18322;SDS011;9287;49.456;11.064;2023-05-15T02:22:53;7.60;;;7.00;;
18322;SDS011;9287;49.456;11.064;2023-05-15T02:25:23;6.80;;;6.23;;
18322;SDS011;9287;49.456;11.064;2023-05-15T02:28:01;7.07;;;6.40;;
18322;SDS011;9287;49.456;11.064;2023-05-15T02:30:37;7.60;;;6.90;;
18322;SDS011;9287;49.456;11.064;2023-05-15T02:33:11;7.80;;;7.10;;
18322;SDS011;9287;49.456;11.064;2023-05-15T02:35:47;7.17;;;6.57;;
18322;SDS011;9287;49.456;11.064;2023-05-15T02:38:19;8.97;;;6.80;;
18322;SDS011;9287;49.456;11.064;2023-05-15T02:40:52;7.73;;;7.13;;
18322;SDS011;9287;49.456;11.064;2023-05-15T02:43:23;7.40;;;6.77;;
18322;SDS011;9287;49.456;11.064;2023-05-15T02:45:54;8.33;;;7.63;;
18322;SDS011;9287;49.456;11.064;2023-05-15T02:48:23;7.53;;;6.93;;
18322;SDS011;9287;49.456;11.064;2023-05-15T02:50:52;7.10;;;6.47;;
18322;SDS011;9287;49.456;11.064;2023-05-15T02:53:20;10.60;;;7.20;;
18322;SDS011;9287;49.456;11.064;2023-05-15T02:55:48;8.30;;;7.57;;
18322;SDS011;9287;49.456;11.064;2023-05-15T02:58:16;7.27;;;6.67;;
18322;SDS011;9287;49.456;11.064;2023-05-15T03:00:44;7.53;;;6.87;;
18322;SDS011;9287;49.456;11.064;2023-05-15T03:03:13;8.00;;;7.30;;
18322;SDS011;9287;49.456;11.064;2023-05-15T03:05:41;8.20;;;7.50;;
18322;SDS011;9287;49.456;11.064;2023-05-15T03:08:08;6.97;;;6.40;;
18322;SDS011;9287;49.456;11.064;2023-05-15T03:10:36;8.13;;;7.40;;
18322;SDS011;9287;49.456;11.064;2023-05-15T03:13:04;8.97;;;6.97;;
18322;SDS011;9287;49.456;11.064;2023-05-15T03:15:32;8.33;;;7.47;;
18322;SDS011;9287;49.456;11.064;2023-05-15T03:17:59;8.13;;;7.37;;
18322;SDS011;9287;49.456;11.064;2023-05-15T03:20:29;8.70;;;7.80;;
18322;SDS011;9287;49.456;11.064;2023-05-15T03:22:57;8.23;;;7.53;;
18322;SDS011;9287;49.456;11.064;2023-05-15T03:25:24;7.67;;;7.07;;
18322;SDS011;9287;49.456;11.064;2023-05-15T03:27:52;8.03;;;7.30;;
18322;SDS011;9287;49.456;11.064;2023-05-15T03:30:20;9.97;;;7.70;;
18322;SDS011;9287;49.456;11.064;2023-05-15T03:32:48;8.63;;;7.80;;
18322;SDS011;9287;49.456;11.064;2023-05-15T03:35:16;9.40;;;8.37;;
18322;SDS011;9287;49.456;11.064;2023-05-15T03:37:46;9.50;;;7.93;;
18322;SDS011;9287;49.456;11.064;2023-05-15T03:40:14;8.97;;;8.07;;
18322;SDS011;9287;49.456;11.064;2023-05-15T03:42:54;8.13;;;7.33;;
18322;SDS011;9287;49.456;11.064;2023-05-15T03:45:21;8.70;;;7.80;;
18322;SDS011;9287;49.456;11.064;2023-05-15T03:47:50;8.43;;;7.67;;
18322;SDS011;9287;49.456;11.064;2023-05-15T03:50:18;9.60;;;8.40;;
18322;SDS011;9287;49.456;11.064;2023-05-15T03:52:47;10.17;;;8.50;;
18322;SDS011;9287;49.456;11.064;2023-05-15T03:55:15;9.27;;;8.37;;
18322;SDS011;9287;49.456;11.064;2023-05-15T03:57:43;8.30;;;7.60;;
18322;SDS011;9287;49.456;11.064;2023-05-15T04:00:11;9.07;;;8.13;;
18322;SDS011;9287;49.456;11.064;2023-05-15T04:02:40;8.17;;;7.47;;
18322;SDS011;9287;49.456;11.064;2023-05-15T04:05:08;8.07;;;7.37;;
18322;SDS011;9287;49.456;11.064;2023-05-15T04:07:37;8.20;;;7.50;;
18322;SDS011;9287;49.456;11.064;2023-05-15T04:10:06;8.40;;;7.67;;
18322;SDS011;9287;49.456;11.064;2023-05-15T04:12:35;8.90;;;8.00;;
18322;SDS011;9287;49.456;11.064;2023-05-15T04:15:15;8.63;;;7.83;;
18322;SDS011;9287;49.456;11.064;2023-05-15T04:17:44;8.93;;;8.13;;
18322;SDS011;9287;49.456;11.064;2023-05-15T04:20:13;8.57;;;7.77;;
18322;SDS011;9287;49.456;11.064;2023-05-15T04:22:42;8.60;;;7.80;;
18322;SDS011;9287;49.456;11.064;2023-05-15T04:25:12;8.33;;;7.53;;
18322;SDS011;9287;49.456;11.064;2023-05-15T04:27:41;8.10;;;7.40;;
18322;SDS011;9287;49.456;11.064;2023-05-15T04:30:10;8.93;;;8.03;;
18322;SDS011;9287;49.456;11.064;2023-05-15T04:32:40;9.40;;;8.50;;
18322;SDS011;9287;49.456;11.064;2023-05-15T04:35:08;9.87;;;8.10;;
18322;SDS011;9287;49.456;11.064;2023-05-15T04:37:41;8.57;;;7.87;;
18322;SDS011;9287;49.456;11.064;2023-05-15T04:40:12;11.30;;;8.70;;
18322;SDS011;9287;49.456;11.064;2023-05-15T04:42:42;9.13;;;8.23;;
18322;SDS011;9287;49.456;11.064;2023-05-15T04:45:10;8.40;;;7.60;;
18322;SDS011;9287;49.456;11.064;2023-05-15T04:47:38;8.00;;;7.30;;
18322;SDS011;9287;49.456;11.064;2023-05-15T04:50:06;10.10;;;8.73;;
18322;SDS011;9287;49.456;11.064;2023-05-15T04:52:35;8.73;;;7.93;;
18322;SDS011;9287;49.456;11.064;2023-05-15T04:55:03;8.90;;;8.20;;
18322;SDS011;9287;49.456;11.064;2023-05-15T04:57:33;9.13;;;8.23;;
18322;SDS011;9287;49.456;11.064;2023-05-15T05:00:02;8.97;;;8.03;;
18322;SDS011;9287;49.456;11.064;2023-05-15T05:02:39;8.70;;;7.90;;
18322;SDS011;9287;49.456;11.064;2023-05-15T05:05:09;8.83;;;7.97;;
18322;SDS011;9287;49.456;11.064;2023-05-15T05:07:40;9.20;;;8.30;;
18322;SDS011;9287;49.456;11.064;2023-05-15T05:10:12;8.63;;;7.83;;
18322;SDS011;9287;49.456;11.064;2023-05-15T05:12:44;8.67;;;7.77;;
18322;SDS011;9287;49.456;11.064;2023-05-15T05:15:13;9.80;;;8.07;;
18322;SDS011;9287;49.456;11.064;2023-05-15T05:17:41;7.93;;;7.23;;
18322;SDS011;9287;49.456;11.064;2023-05-15T05:20:13;8.10;;;7.30;;
18322;SDS011;9287;49.456;11.064;2023-05-15T05:22:44;9.00;;;8.10;;
18322;SDS011;9287;49.456;11.064;2023-05-15T05:25:12;10.20;;;7.60;;
18322;SDS011;9287;49.456;11.064;2023-05-15T05:27:41;8.00;;;7.20;;
18322;SDS011;9287;49.456;11.064;2023-05-15T05:30:12;8.83;;;7.93;;
18322;SDS011;9287;49.456;11.064;2023-05-15T05:32:40;8.57;;;7.87;;
18322;SDS011;9287;49.456;11.064;2023-05-15T05:35:11;8.87;;;8.03;;
18322;SDS011;9287;49.456;11.064;2023-05-15T05:37:40;9.93;;;9.03;;
18322;SDS011;9287;49.456;11.064;2023-05-15T05:40:11;9.23;;;8.33;;
18322;SDS011;9287;49.456;11.064;2023-05-15T05:42:39;10.03;;;9.13;;
18322;SDS011;9287;49.456;11.064;2023-05-15T05:45:07;11.87;;;9.80;;
18322;SDS011;9287;49.456;11.064;2023-05-15T05:47:38;10.57;;;9.17;;
18322;SDS011;9287;49.456;11.064;2023-05-15T05:50:06;10.80;;;9.07;;
18322;SDS011;9287;49.456;11.064;2023-05-15T05:52:36;9.90;;;9.00;;
18322;SDS011;9287;49.456;11.064;2023-05-15T05:55:04;11.07;;;9.80;;
18322;SDS011;9287;49.456;11.064;2023-05-15T05:57:32;11.30;;;10.20;;
18322;SDS011;9287;49.456;11.064;2023-05-15T06:00:00;11.83;;;10.70;;
18322;SDS011;9287;49.456;11.064;2023-05-15T06:02:29;11.33;;;10.23;;
18322;SDS011;9287;49.456;11.064;2023-05-15T06:04:58;11.50;;;10.47;;
18322;SDS011;9287;49.456;11.064;2023-05-15T06:07:26;10.60;;;9.50;;
18322;SDS011;9287;49.456;11.064;2023-05-15T06:09:54;11.47;;;10.37;;
18322;SDS011;9287;49.456;11.064;2023-05-15T06:12:21;11.00;;;9.90;;
18322;SDS011;9287;49.456;11.064;2023-05-15T06:14:50;11.10;;;9.90;;
18322;SDS011;9287;49.456;11.064;2023-05-15T06:17:17;9.10;;;8.23;;
18322;SDS011;9287;49.456;11.064;2023-05-15T06:19:46;10.67;;;9.03;;
18322;SDS011;9287;49.456;11.064;2023-05-15T06:22:15;11.27;;;8.50;;
18322;SDS011;9287;49.456;11.064;2023-05-15T06:24:44;10.80;;;8.67;;
18322;SDS011;9287;49.456;11.064;2023-05-15T06:27:12;9.63;;;8.63;;
18322;SDS011;9287;49.456;11.064;2023-05-15T06:29:40;9.37;;;8.57;;
18322;SDS011;9287;49.456;11.064;2023-05-15T06:32:08;8.83;;;8.07;;
18322;SDS011;9287;49.456;11.064;2023-05-15T06:34:36;8.90;;;8.10;;
18322;SDS011;9287;49.456;11.064;2023-05-15T06:37:04;9.80;;;8.83;;
18322;SDS011;9287;49.456;11.064;2023-05-15T06:39:34;9.40;;;8.50;;
18322;SDS011;9287;49.456;11.064;2023-05-15T06:42:02;8.67;;;7.77;;
18322;SDS011;9287;49.456;11.064;2023-05-15T06:44:30;9.77;;;8.97;;
18322;SDS011;9287;49.456;11.064;2023-05-15T06:46:58;9.20;;;8.30;;
18322;SDS011;9287;49.456;11.064;2023-05-15T06:49:27;9.87;;;8.97;;
18322;SDS011;9287;49.456;11.064;2023-05-15T06:51:54;8.00;;;7.33;;
18322;SDS011;9287;49.456;11.064;2023-05-15T06:54:22;8.37;;;7.57;;
18322;SDS011;9287;49.456;11.064;2023-05-15T06:56:51;8.50;;;7.67;;
18322;SDS011;9287;49.456;11.064;2023-05-15T06:59:19;7.23;;;6.60;;
18322;SDS011;9287;49.456;11.064;2023-05-15T07:01:47;7.20;;;6.50;;
18322;SDS011;9287;49.456;11.064;2023-05-15T07:04:15;6.73;;;6.03;;
18322;SDS011;9287;49.456;11.064;2023-05-15T07:06:42;6.23;;;5.63;;
18322;SDS011;9287;49.456;11.064;2023-05-15T07:09:11;6.83;;;6.23;;
18322;SDS011;9287;49.456;11.064;2023-05-15T07:11:39;5.50;;;5.07;;
18322;SDS011;9287;49.456;11.064;2023-05-15T07:14:08;5.35;;;4.93;;
18322;SDS011;9287;49.456;11.064;2023-05-15T07:16:37;4.50;;;4.10;;
18322;SDS011;9287;49.456;11.064;2023-05-15T07:19:06;4.13;;;3.88;;
18322;SDS011;9287;49.456;11.064;2023-05-15T07:21:35;4.18;;;3.88;;
18322;SDS011;9287;49.456;11.064;2023-05-15T07:24:03;3.83;;;3.53;;
18322;SDS011;9287;49.456;11.064;2023-05-15T07:26:31;3.30;;;3.10;;
18322;SDS011;9287;49.456;11.064;2023-05-15T07:29:17;3.40;;;3.20;;
18322;SDS011;9287;49.456;11.064;2023-05-15T07:31:45;2.67;;;2.58;;
18322;SDS011;9287;49.456;11.064;2023-05-15T07:34:12;2.97;;;2.78;;
18322;SDS011;9287;49.456;11.064;2023-05-15T07:36:41;3.45;;;3.15;;
18322;SDS011;9287;49.456;11.064;2023-05-15T07:39:09;3.03;;;2.83;;
18322;SDS011;9287;49.456;11.064;2023-05-15T07:41:37;3.55;;;3.35;;
18322;SDS011;9287;49.456;11.064;2023-05-15T07:44:04;3.05;;;2.75;;
18322;SDS011;9287;49.456;11.064;2023-05-15T07:46:33;3.78;;;3.47;;
18322;SDS011;9287;49.456;11.064;2023-05-15T07:49:01;3.67;;;3.00;;
18322;SDS011;9287;49.456;11.064;2023-05-15T07:51:29;3.38;;;3.17;;
18322;SDS011;9287;49.456;11.064;2023-05-15T07:53:57;2.70;;;2.50;;
18322;SDS011;9287;49.456;11.064;2023-05-15T07:56:25;3.92;;;3.63;;
18322;SDS011;9287;49.456;11.064;2023-05-15T07:58:53;3.60;;;3.30;;
18322;SDS011;9287;49.456;11.064;2023-05-15T08:01:21;3.25;;;3.00;;
18322;SDS011;9287;49.456;11.064;2023-05-15T08:03:50;3.30;;;3.10;;
18322;SDS011;9287;49.456;11.064;2023-05-15T08:06:19;3.58;;;3.38;;
18322;SDS011;9287;49.456;11.064;2023-05-15T08:08:47;3.20;;;3.00;;
18322;SDS011;9287;49.456;11.064;2023-05-15T08:11:16;3.67;;;3.38;;
18322;SDS011;9287;49.456;11.064;2023-05-15T08:13:44;3.30;;;3.00;;
18322;SDS011;9287;49.456;11.064;2023-05-15T08:16:12;3.47;;;3.28;;
18322;SDS011;9287;49.456;11.064;2023-05-15T08:18:40;3.40;;;3.17;;
18322;SDS011;9287;49.456;11.064;2023-05-15T08:21:09;3.40;;;3.20;;
18322;SDS011;9287;49.456;11.064;2023-05-15T08:23:37;2.97;;;2.50;;
18322;SDS011;9287;49.456;11.064;2023-05-15T08:26:05;2.80;;;2.40;;
18322;SDS011;9287;49.456;11.064;2023-05-15T08:28:33;3.17;;;2.70;;
18322;SDS011;9287;49.456;11.064;2023-05-15T08:31:01;2.90;;;2.70;;
18322;SDS011;9287;49.456;11.064;2023-05-15T08:33:29;2.25;;;2.05;;
18322;SDS011;9287;49.456;11.064;2023-05-15T08:35:57;2.40;;;2.20;;
18322;SDS011;9287;49.456;11.064;2023-05-15T08:38:26;2.65;;;2.55;;
18322;SDS011;9287;49.456;11.064;2023-05-15T08:40:54;2.20;;;2.00;;
18322;SDS011;9287;49.456;11.064;2023-05-15T08:43:25;2.40;;;2.30;;
18322;SDS011;9287;49.456;11.064;2023-05-15T08:45:58;2.15;;;1.98;;
18322;SDS011;9287;49.456;11.064;2023-05-15T08:48:26;2.03;;;1.92;;
18322;SDS011;9287;49.456;11.064;2023-05-15T08:50:56;2.80;;;2.60;;
18322;SDS011;9287;49.456;11.064;2023-05-15T08:53:28;2.17;;;2.08;;
18322;SDS011;9287;49.456;11.064;2023-05-15T08:55:58;2.30;;;2.20;;
18322;SDS011;9287;49.456;11.064;2023-05-15T08:58:26;2.40;;;2.20;;
18322;SDS011;9287;49.456;11.064;2023-05-15T09:00:54;2.20;;;2.00;;
18322;SDS011;9287;49.456;11.064;2023-05-15T09:03:23;2.40;;;1.98;;
18322;SDS011;9287;49.456;11.064;2023-05-15T09:05:51;2.70;;;2.50;;
18322;SDS011;9287;49.456;11.064;2023-05-15T09:08:21;2.38;;;2.17;;
18322;SDS011;9287;49.456;11.064;2023-05-15T09:10:50;2.33;;;2.13;;
18322;SDS011;9287;49.456;11.064;2023-05-15T09:13:20;1.80;;;1.70;;
18322;SDS011;9287;49.456;11.064;2023-05-15T09:15:48;2.08;;;1.90;;
18322;SDS011;9287;49.456;11.064;2023-05-15T09:18:17;1.75;;;1.65;;
18322;SDS011;9287;49.456;11.064;2023-05-15T09:20:46;5.38;;;1.83;;
18322;SDS011;9287;49.456;11.064;2023-05-15T09:23:21;1.65;;;1.55;;
18322;SDS011;9287;49.456;11.064;2023-05-15T09:25:52;1.55;;;1.45;;
18322;SDS011;9287;49.456;11.064;2023-05-15T09:28:26;1.80;;;1.70;;
18322;SDS011;9287;49.456;11.064;2023-05-15T09:30:56;2.65;;;2.30;;
18322;SDS011;9287;49.456;11.064;2023-05-15T09:33:26;2.35;;;2.10;;
18322;SDS011;9287;49.456;11.064;2023-05-15T09:35:54;3.00;;;2.47;;
18322;SDS011;9287;49.456;11.064;2023-05-15T09:38:22;1.83;;;1.73;;
18322;SDS011;9287;49.456;11.064;2023-05-15T09:41:01;1.92;;;1.83;;
18322;SDS011;9287;49.456;11.064;2023-05-15T09:43:32;1.80;;;1.70;;
18322;SDS011;9287;49.456;11.064;2023-05-15T09:46:01;2.28;;;2.08;;
18322;SDS011;9287;49.456;11.064;2023-05-15T09:48:29;2.25;;;1.80;;
18322;SDS011;9287;49.456;11.064;2023-05-15T09:50:58;2.30;;;2.20;;
18322;SDS011;9287;49.456;11.064;2023-05-15T09:53:27;2.47;;;2.38;;
18322;SDS011;9287;49.456;11.064;2023-05-15T09:55:57;2.38;;;2.28;;
18322;SDS011;9287;49.456;11.064;2023-05-15T09:58:26;2.45;;;2.35;;
18322;SDS011;9287;49.456;11.064;2023-05-15T10:00:54;2.25;;;2.15;;
18322;SDS011;9287;49.456;11.064;2023-05-15T10:03:26;2.13;;;1.98;;
18322;SDS011;9287;49.456;11.064;2023-05-15T10:06:01;3.00;;;2.80;;
18322;SDS011;9287;49.456;11.064;2023-05-15T10:08:30;2.33;;;2.13;;
18322;SDS011;9287;49.456;11.064;2023-05-15T10:11:00;2.75;;;1.15;;
18322;SDS011;9287;49.456;11.064;2023-05-15T10:13:30;1.05;;;0.80;;
18322;SDS011;9287;49.456;11.064;2023-05-15T10:16:00;1.55;;;0.80;;
18322;SDS011;9287;49.456;11.064;2023-05-15T10:18:29;2.25;;;0.60;;
18322;SDS011;9287;49.456;11.064;2023-05-15T10:21:00;0.80;;;0.80;;
18322;SDS011;9287;49.456;11.064;2023-05-15T10:23:30;1.00;;;0.80;;
18322;SDS011;9287;49.456;11.064;2023-05-15T10:26:04;1.20;;;0.82;;
18322;SDS011;9287;49.456;11.064;2023-05-15T10:28:38;1.58;;;0.80;;
18322;SDS011;9287;49.456;11.064;2023-05-15T10:31:10;0.88;;;0.80;;
18322;SDS011;9287;49.456;11.064;2023-05-15T10:33:42;3.33;;;1.02;;
18322;SDS011;9287;49.456;11.064;2023-05-15T10:36:14;1.33;;;1.23;;
18322;SDS011;9287;49.456;11.064;2023-05-15T10:38:44;1.55;;;1.10;;
18322;SDS011;9287;49.456;11.064;2023-05-15T10:41:12;1.60;;;1.38;;
18322;SDS011;9287;49.456;11.064;2023-05-15T10:43:45;2.65;;;1.60;;
18322;SDS011;9287;49.456;11.064;2023-05-15T10:46:13;1.92;;;1.40;;
18322;SDS011;9287;49.456;11.064;2023-05-15T10:48:42;1.80;;;1.50;;
18322;SDS011;9287;49.456;11.064;2023-05-15T10:51:16;3.10;;;1.77;;
18322;SDS011;9287;49.456;11.064;2023-05-15T10:53:45;2.50;;;2.10;;
18322;SDS011;9287;49.456;11.064;2023-05-15T10:56:13;4.33;;;1.93;;
18322;SDS011;9287;49.456;11.064;2023-05-15T10:58:47;1.90;;;1.80;;
18322;SDS011;9287;49.456;11.064;2023-05-15T11:01:28;3.23;;;1.77;;
18322;SDS011;9287;49.456;11.064;2023-05-15T11:04:05;1.53;;;1.40;;
18322;SDS011;9287;49.456;11.064;2023-05-15T11:06:34;2.07;;;1.80;;
18322;SDS011;9287;49.456;11.064;2023-05-15T11:12:05;1.65;;;1.55;;
18322;SDS011;9287;49.456;11.064;2023-05-15T11:14:36;1.45;;;1.35;;
18322;SDS011;9287;49.456;11.064;2023-05-15T11:17:06;1.70;;;1.60;;
18322;SDS011;9287;49.456;11.064;2023-05-15T11:19:36;1.60;;;1.50;;
18322;SDS011;9287;49.456;11.064;2023-05-15T11:22:19;1.88;;;1.40;;
18322;SDS011;9287;49.456;11.064;2023-05-15T11:24:50;1.83;;;1.73;;
18322;SDS011;9287;49.456;11.064;2023-05-15T11:27:19;2.85;;;1.80;;
18322;SDS011;9287;49.456;11.064;2023-05-15T11:30:09;1.60;;;1.50;;
18322;SDS011;9287;49.456;11.064;2023-05-15T11:32:40;2.00;;;1.90;;
18322;SDS011;9287;49.456;11.064;2023-05-15T11:35:09;3.20;;;2.35;;
18322;SDS011;9287;49.456;11.064;2023-05-15T11:37:40;2.60;;;2.38;;
18322;SDS011;9287;49.456;11.064;2023-05-15T11:40:11;3.50;;;2.05;;
18322;SDS011;9287;49.456;11.064;2023-05-15T11:42:40;2.88;;;2.08;;
18322;SDS011;9287;49.456;11.064;2023-05-15T11:45:10;2.13;;;1.83;;
18322;SDS011;9287;49.456;11.064;2023-05-15T11:47:37;2.22;;;2.08;;
18322;SDS011;9287;49.456;11.064;2023-05-15T11:50:10;2.15;;;1.60;;
18322;SDS011;9287;49.456;11.064;2023-05-15T11:52:38;3.40;;;2.08;;
18322;SDS011;9287;49.456;11.064;2023-05-15T11:55:07;2.20;;;2.10;;
18322;SDS011;9287;49.456;11.064;2023-05-15T11:57:36;2.40;;;2.20;;
18322;SDS011;9287;49.456;11.064;2023-05-15T12:00:05;3.97;;;2.03;;
18322;SDS011;9287;49.456;11.064;2023-05-15T12:02:36;2.00;;;1.90;;
18322;SDS011;9287;49.456;11.064;2023-05-15T12:05:05;1.90;;;1.80;;
18322;SDS011;9287;49.456;11.064;2023-05-15T12:07:34;1.70;;;1.60;;
18322;SDS011;9287;49.456;11.064;2023-05-15T12:10:04;1.60;;;1.50;;
18322;SDS011;9287;49.456;11.064;2023-05-15T12:12:34;3.20;;;1.88;;
18322;SDS011;9287;49.456;11.064;2023-05-15T12:15:03;1.83;;;1.73;;
18322;SDS011;9287;49.456;11.064;2023-05-15T12:17:31;1.70;;;1.60;;
18322;SDS011;9287;49.456;11.064;2023-05-15T12:20:02;2.15;;;2.05;;
18322;SDS011;9287;49.456;11.064;2023-05-15T12:22:34;2.40;;;2.03;;
18322;SDS011;9287;49.456;11.064;2023-05-15T12:25:04;2.38;;;2.17;;
18322;SDS011;9287;49.456;11.064;2023-05-15T12:27:33;4.22;;;1.63;;
18322;SDS011;9287;49.456;11.064;2023-05-15T12:30:01;1.63;;;1.52;;
18322;SDS011;9287;49.456;11.064;2023-05-15T12:32:32;2.65;;;2.15;;
18322;SDS011;9287;49.456;11.064;2023-05-15T12:35:04;1.95;;;1.85;;
18322;SDS011;9287;49.456;11.064;2023-05-15T12:37:34;3.22;;;2.40;;
18322;SDS011;9287;49.456;11.064;2023-05-15T12:40:03;7.13;;;3.75;;
18322;SDS011;9287;49.456;11.064;2023-05-15T12:42:39;4.95;;;4.45;;
18322;SDS011;9287;49.456;11.064;2023-05-15T12:45:11;6.05;;;4.15;;
18322;SDS011;9287;49.456;11.064;2023-05-15T12:47:40;5.20;;;4.22;;
18322;SDS011;9287;49.456;11.064;2023-05-15T12:50:14;4.80;;;4.28;;
18322;SDS011;9287;49.456;11.064;2023-05-15T12:52:47;5.88;;;4.93;;
18322;SDS011;9287;49.456;11.064;2023-05-15T12:55:17;5.63;;;4.72;;
18322;SDS011;9287;49.456;11.064;2023-05-15T12:57:49;5.70;;;5.20;;
18322;SDS011;9287;49.456;11.064;2023-05-15T13:00:17;5.07;;;4.63;;
18322;SDS011;9287;49.456;11.064;2023-05-15T13:02:48;4.63;;;4.22;;
18322;SDS011;9287;49.456;11.064;2023-05-15T13:05:18;5.13;;;4.63;;
18322;SDS011;9287;49.456;11.064;2023-05-15T13:07:46;4.50;;;4.20;;
18322;SDS011;9287;49.456;11.064;2023-05-15T13:10:14;4.28;;;3.55;;
18322;SDS011;9287;49.456;11.064;2023-05-15T13:12:43;3.80;;;3.50;;
18322;SDS011;9287;49.456;11.064;2023-05-15T13:15:22;4.25;;;3.50;;
18322;SDS011;9287;49.456;11.064;2023-05-15T13:17:52;6.28;;;3.20;;
18322;SDS011;9287;49.456;11.064;2023-05-15T13:20:24;4.00;;;3.70;;
18322;SDS011;9287;49.456;11.064;2023-05-15T13:22:52;2.95;;;2.72;;
18322;SDS011;9287;49.456;11.064;2023-05-15T13:25:21;2.47;;;2.28;;
18322;SDS011;9287;49.456;11.064;2023-05-15T13:27:49;3.22;;;2.80;;
18322;SDS011;9287;49.456;11.064;2023-05-15T13:30:17;2.60;;;2.40;;
18322;SDS011;9287;49.456;11.064;2023-05-15T13:32:45;3.00;;;2.60;;
18322;SDS011;9287;49.456;11.064;2023-05-15T13:35:14;2.90;;;2.70;;
18322;SDS011;9287;49.456;11.064;2023-05-15T13:37:44;4.45;;;2.65;;
18322;SDS011;9287;49.456;11.064;2023-05-15T13:40:12;4.50;;;2.88;;
18322;SDS011;9287;49.456;11.064;2023-05-15T13:42:41;3.90;;;2.50;;
18322;SDS011;9287;49.456;11.064;2023-05-15T13:45:10;2.90;;;2.67;;
18322;SDS011;9287;49.456;11.064;2023-05-15T13:47:38;2.70;;;2.60;;
18322;SDS011;9287;49.456;11.064;2023-05-15T13:50:07;3.25;;;2.13;;
18322;SDS011;9287;49.456;11.064;2023-05-15T13:52:37;2.97;;;2.30;;
18322;SDS011;9287;49.456;11.064;2023-05-15T13:55:07;3.67;;;2.50;;
18322;SDS011;9287;49.456;11.064;2023-05-15T13:57:36;2.33;;;2.22;;
18322;SDS011;9287;49.456;11.064;2023-05-15T14:00:04;2.50;;;2.30;;
18322;SDS011;9287;49.456;11.064;2023-05-15T14:02:34;2.55;;;2.15;;
18322;SDS011;9287;49.456;11.064;2023-05-15T14:05:02;4.68;;;2.15;;
18322;SDS011;9287;49.456;11.064;2023-05-15T14:07:30;3.33;;;2.42;;
18322;SDS011;9287;49.456;11.064;2023-05-15T14:09:58;2.08;;;1.98;;
18322;SDS011;9287;49.456;11.064;2023-05-15T14:12:27;2.63;;;2.45;;
18322;SDS011;9287;49.456;11.064;2023-05-15T14:14:55;3.38;;;2.58;;
18322;SDS011;9287;49.456;11.064;2023-05-15T14:17:23;2.58;;;2.20;;
18322;SDS011;9287;49.456;11.064;2023-05-15T14:19:53;2.53;;;2.33;;
18322;SDS011;9287;49.456;11.064;2023-05-15T14:22:20;2.28;;;2.10;;
18322;SDS011;9287;49.456;11.064;2023-05-15T14:24:50;3.03;;;2.58;;
18322;SDS011;9287;49.456;11.064;2023-05-15T14:27:18;2.28;;;2.17;;
18322;SDS011;9287;49.456;11.064;2023-05-15T14:29:48;2.53;;;2.33;;
18322;SDS011;9287;49.456;11.064;2023-05-15T14:32:16;3.63;;;2.40;;
18322;SDS011;9287;49.456;11.064;2023-05-15T14:34:44;2.53;;;2.38;;
18322;SDS011;9287;49.456;11.064;2023-05-15T14:37:12;2.40;;;2.20;;
18322;SDS011;9287;49.456;11.064;2023-05-15T14:39:40;2.63;;;2.50;;
18322;SDS011;9287;49.456;11.064;2023-05-15T14:42:08;3.15;;;2.95;;
18322;SDS011;9287;49.456;11.064;2023-05-15T14:44:35;3.47;;;3.17;;
18322;SDS011;9287;49.456;11.064;2023-05-15T14:47:05;2.90;;;2.70;;
18322;SDS011;9287;49.456;11.064;2023-05-15T14:49:34;3.00;;;2.53;;
18322;SDS011;9287;49.456;11.064;2023-05-15T14:52:02;2.85;;;2.53;;
18322;SDS011;9287;49.456;11.064;2023-05-15T14:54:33;2.90;;;2.60;;
18322;SDS011;9287;49.456;11.064;2023-05-15T14:57:01;3.97;;;2.17;;
18322;SDS011;9287;49.456;11.064;2023-05-15T14:59:30;2.85;;;2.20;;
18322;SDS011;9287;49.456;11.064;2023-05-15T15:01:57;2.80;;;2.50;;